sensor_id;sensor_type;location;lat;lon;timestamp;pressure;altitude;pressure_sealevel;temperature;humidity
40205;BME280;26963;42.666;23.366;2023-01-28T00:02:00;94285.34;;;3.00;64.31
40205;BME280;26963;42.666;23.366;2023-01-28T00:04:26;94287.97;;;2.95;64.86
40205;BME280;26963;42.666;23.366;2023-01-28T00:06:51;94271.00;;;2.81;65.04
40205;BME280;26963;42.666;23.366;2023-01-28T00:09:18;94286.41;;;2.94;65.68
40205;BME280;26963;42.666;23.366;2023-01-28T00:11:44;94291.13;;;2.87;64.53
40205;BME280;26963;42.666;23.366;2023-01-28T00:14:10;94311.22;;;2.93;65.22
40205;BME280;26963;42.666;23.366;2023-01-28T00:16:39;94301.69;;;2.92;65.14
40205;BME280;26963;42.666;23.366;2023-01-28T00:19:04;94301.13;;;2.80;64.74
40205;BME280;26963;42.666;23.366;2023-01-28T00:21:30;94248.69;;;2.45;64.69
40205;BME280;26963;42.666;23.366;2023-01-28T00:23:56;94314.84;;;2.76;64.35
40205;BME280;26963;42.666;23.366;2023-01-28T00:26:23;94290.97;;;2.56;65.13
40205;BME280;26963;42.666;23.366;2023-01-28T00:28:50;94311.69;;;2.80;65.20
40205;BME280;26963;42.666;23.366;2023-01-28T00:31:24;94274.06;;;2.52;64.98
40205;BME280;26963;42.666;23.366;2023-01-28T00:33:55;94325.22;;;2.99;65.25
40205;BME280;26963;42.666;23.366;2023-01-28T00:36:23;94327.09;;;2.98;64.62
40205;BME280;26963;42.666;23.366;2023-01-28T00:38:54;94327.88;;;3.04;65.07
40205;BME280;26963;42.666;23.366;2023-01-28T00:41:22;94329.75;;;3.03;64.21
40205;BME280;26963;42.666;23.366;2023-01-28T00:43:49;94312.25;;;2.87;64.94
40205;BME280;26963;42.666;23.366;2023-01-28T00:46:15;94324.69;;;2.86;65.66
40205;BME280;26963;42.666;23.366;2023-01-28T00:48:42;94318.84;;;2.84;65.10
40205;BME280;26963;42.666;23.366;2023-01-28T00:51:09;94328.06;;;2.76;64.92
40205;BME280;26963;42.666;23.366;2023-01-28T00:53:35;94324.63;;;2.81;65.32
40205;BME280;26963;42.666;23.366;2023-01-28T00:56:02;94317.47;;;2.71;65.13
40205;BME280;26963;42.666;23.366;2023-01-28T00:58:28;94330.72;;;2.76;65.29
40205;BME280;26963;42.666;23.366;2023-01-28T01:00:53;94307.66;;;2.67;65.24
40205;BME280;26963;42.666;23.366;2023-01-28T01:03:19;94204.63;;;1.93;65.28
40205;BME280;26963;42.666;23.366;2023-01-28T01:05:45;94285.69;;;2.56;65.14
40205;BME280;26963;42.666;23.366;2023-01-28T01:08:11;94061.75;;;1.05;64.56
40205;BME280;26963;42.666;23.366;2023-01-28T01:10:39;94305.63;;;2.79;65.11
40205;BME280;26963;42.666;23.366;2023-01-28T01:13:05;94324.94;;;2.90;63.20
40205;BME280;26963;42.666;23.366;2023-01-28T01:15:31;94302.16;;;2.73;64.02
40205;BME280;26963;42.666;23.366;2023-01-28T01:17:57;94277.75;;;2.51;64.48
40205;BME280;26963;42.666;23.366;2023-01-28T01:20:27;94203.84;;;1.98;64.80
40205;BME280;26963;42.666;23.366;2023-01-28T01:22:53;94251.78;;;2.27;64.72
40205;BME280;26963;42.666;23.366;2023-01-28T01:25:20;94339.47;;;2.87;64.57
40205;BME280;26963;42.666;23.366;2023-01-28T01:27:49;94260.22;;;2.29;64.41
40205;BME280;26963;42.666;23.366;2023-01-28T01:30:15;94336.50;;;2.78;64.22
40205;BME280;26963;42.666;23.366;2023-01-28T01:32:44;94323.81;;;2.70;64.83
40205;BME280;26963;42.666;23.366;2023-01-28T01:35:10;94346.56;;;2.82;65.11
40205;BME280;26963;42.666;23.366;2023-01-28T01:37:36;94345.03;;;2.91;64.59
40205;BME280;26963;42.666;23.366;2023-01-28T01:40:02;94155.38;;;1.61;63.88
40205;BME280;26963;42.666;23.366;2023-01-28T01:42:30;94343.38;;;2.80;64.12
40205;BME280;26963;42.666;23.366;2023-01-28T01:49:55;94196.09;;;1.81;65.73
40205;BME280;26963;42.666;23.366;2023-01-28T01:52:25;94336.00;;;2.82;64.92
40205;BME280;26963;42.666;23.366;2023-01-28T01:54:56;94341.91;;;2.99;64.58
40205;BME280;26963;42.666;23.366;2023-01-28T01:57:28;94345.38;;;3.15;64.66
40205;BME280;26963;42.666;23.366;2023-01-28T01:59:55;94345.66;;;3.24;63.78
40205;BME280;26963;42.666;23.366;2023-01-28T02:02:40;94353.09;;;3.32;63.41
40205;BME280;26963;42.666;23.366;2023-01-28T02:05:09;94209.91;;;2.51;62.66
40205;BME280;26963;42.666;23.366;2023-01-28T02:07:35;94336.22;;;3.43;62.39
40205;BME280;26963;42.666;23.366;2023-01-28T02:10:02;94333.56;;;3.43;62.28
40205;BME280;26963;42.666;23.366;2023-01-28T02:12:36;94353.16;;;3.68;61.91
40205;BME280;26963;42.666;23.366;2023-01-28T02:15:07;94348.16;;;3.72;61.46
40205;BME280;26963;42.666;23.366;2023-01-28T02:17:35;94359.28;;;3.74;61.54
40205;BME280;26963;42.666;23.366;2023-01-28T02:23:26;94361.66;;;3.81;61.32
40205;BME280;26963;42.666;23.366;2023-01-28T02:28:51;94324.06;;;3.63;60.66
40205;BME280;26963;42.666;23.366;2023-01-28T02:31:24;94349.75;;;3.73;60.58
40205;BME280;26963;42.666;23.366;2023-01-28T02:36:35;94324.59;;;3.70;60.00
40205;BME280;26963;42.666;23.366;2023-01-28T02:39:09;94363.25;;;3.92;60.27
40205;BME280;26963;42.666;23.366;2023-01-28T02:41:39;94367.22;;;3.95;60.65
40205;BME280;26963;42.666;23.366;2023-01-28T02:44:09;94369.59;;;3.91;59.72
40205;BME280;26963;42.666;23.366;2023-01-28T02:46:36;94354.78;;;3.85;59.88
40205;BME280;26963;42.666;23.366;2023-01-28T02:54:59;94240.97;;;3.13;59.40
40205;BME280;26963;42.666;23.366;2023-01-28T03:07:38;94332.00;;;3.73;59.30
40205;BME280;26963;42.666;23.366;2023-01-28T03:10:07;94372.25;;;3.96;59.38
40205;BME280;26963;42.666;23.366;2023-01-28T03:12:36;94366.97;;;4.01;59.59
40205;BME280;26963;42.666;23.366;2023-01-28T03:15:28;94378.09;;;3.98;59.14
40205;BME280;26963;42.666;23.366;2023-01-28T03:18:22;94345.25;;;3.84;59.07
40205;BME280;26963;42.666;23.366;2023-01-28T03:21:30;94338.91;;;3.74;59.24
40205;BME280;26963;42.666;23.366;2023-01-28T03:24:22;94324.06;;;3.63;58.97
40205;BME280;26963;42.666;23.366;2023-01-28T03:27:18;94370.16;;;3.93;58.78
40205;BME280;26963;42.666;23.366;2023-01-28T03:30:19;94303.44;;;3.50;58.98
40205;BME280;26963;42.666;23.366;2023-01-28T03:33:06;94369.59;;;3.91;58.66
40205;BME280;26963;42.666;23.366;2023-01-28T03:35:50;94370.13;;;3.83;58.80
40205;BME280;26963;42.666;23.366;2023-01-28T03:38:34;94386.53;;;3.90;58.62
40205;BME280;26963;42.666;23.366;2023-01-28T03:41:07;94386.03;;;3.88;59.07
40205;BME280;26963;42.666;23.366;2023-01-28T03:43:33;94384.69;;;3.85;58.88
40205;BME280;26963;42.666;23.366;2023-01-28T03:45:59;94240.38;;;2.95;59.54
40205;BME280;26963;42.666;23.366;2023-01-28T03:48:27;94376.50;;;3.82;59.54
40205;BME280;26963;42.666;23.366;2023-01-28T03:50:55;94384.97;;;3.89;59.37
40205;BME280;26963;42.666;23.366;2023-01-28T03:53:21;94386.81;;;3.88;59.36
40205;BME280;26963;42.666;23.366;2023-01-28T03:55:49;94315.56;;;3.40;58.93
40205;BME280;26963;42.666;23.366;2023-01-28T03:58:16;94372.25;;;3.81;59.69
40205;BME280;26963;42.666;23.366;2023-01-28T04:00:42;94386.53;;;3.90;59.20
40205;BME280;26963;42.666;23.366;2023-01-28T04:03:12;94370.66;;;3.80;59.30
40205;BME280;26963;42.666;23.366;2023-01-28T04:06:02;94285.13;;;3.22;59.03
40205;BME280;26963;42.666;23.366;2023-01-28T04:08:28;94379.13;;;3.77;59.72
40205;BME280;26963;42.666;23.366;2023-01-28T04:10:54;94397.13;;;3.90;59.19
40205;BME280;26963;42.666;23.366;2023-01-28T04:13:20;94345.75;;;3.55;59.00
40205;BME280;26963;42.666;23.366;2023-01-28T04:15:46;94378.59;;;3.74;59.19
40205;BME280;26963;42.666;23.366;2023-01-28T04:18:12;94406.16;;;3.89;59.14
40205;BME280;26963;42.666;23.366;2023-01-28T04:20:37;94395.50;;;3.79;58.51
40205;BME280;26963;42.666;23.366;2023-01-28T04:23:04;94369.03;;;3.63;58.67
40205;BME280;26963;42.666;23.366;2023-01-28T04:25:30;94404.53;;;3.78;59.26
40205;BME280;26963;42.666;23.366;2023-01-28T04:27:56;94413.00;;;3.85;58.79
40205;BME280;26963;42.666;23.366;2023-01-28T04:30:22;94406.38;;;3.77;59.31
40205;BME280;26963;42.666;23.366;2023-01-28T04:32:48;94380.66;;;3.62;59.15
40205;BME280;26963;42.666;23.366;2023-01-28T04:35:17;94419.88;;;3.91;58.38
40205;BME280;26963;42.666;23.366;2023-01-28T04:37:44;94415.41;;;3.86;59.10
40205;BME280;26963;42.666;23.366;2023-01-28T04:40:11;94341.47;;;3.33;58.63
40205;BME280;26963;42.666;23.366;2023-01-28T04:42:37;94413.53;;;3.77;59.05
40205;BME280;26963;42.666;23.366;2023-01-28T04:45:03;94428.88;;;3.85;59.18
40205;BME280;26963;42.666;23.366;2023-01-28T04:47:29;94267.56;;;2.75;58.97
40205;BME280;26963;42.666;23.366;2023-01-28T04:49:54;94394.72;;;3.68;58.98
40205;BME280;26963;42.666;23.366;2023-01-28T04:52:20;94346.25;;;3.36;58.58
40205;BME280;26963;42.666;23.366;2023-01-28T04:54:45;94435.78;;;3.96;58.75
40205;BME280;26963;42.666;23.366;2023-01-28T04:57:14;94433.66;;;3.93;58.58
40205;BME280;26963;42.666;23.366;2023-01-28T04:59:40;94415.13;;;3.78;58.13
40205;BME280;26963;42.666;23.366;2023-01-28T05:02:06;94362.13;;;3.41;58.46
40205;BME280;26963;42.666;23.366;2023-01-28T05:04:31;94443.69;;;3.86;58.67
40205;BME280;26963;42.666;23.366;2023-01-28T05:06:57;94427.50;;;3.62;59.08
40205;BME280;26963;42.666;23.366;2023-01-28T05:09:22;94415.06;;;3.57;58.92
40205;BME280;26963;42.666;23.366;2023-01-28T05:11:48;94453.75;;;3.84;59.24
40205;BME280;26963;42.666;23.366;2023-01-28T05:14:13;94444.75;;;3.80;59.39
40205;BME280;26963;42.666;23.366;2023-01-28T05:16:39;94456.38;;;3.84;59.34
40205;BME280;26963;42.666;23.366;2023-01-28T05:19:05;94302.72;;;2.86;59.26
40205;BME280;26963;42.666;23.366;2023-01-28T05:21:30;94472.53;;;3.87;59.79
40205;BME280;26963;42.666;23.366;2023-01-28T05:23:56;94434.66;;;3.66;59.51
40205;BME280;26963;42.666;23.366;2023-01-28T05:26:21;94403.38;;;3.42;59.19
40205;BME280;26963;42.666;23.366;2023-01-28T05:28:47;94472.03;;;3.80;59.44
40205;BME280;26963;42.666;23.366;2023-01-28T05:31:12;94468.56;;;3.85;59.46
40205;BME280;26963;42.666;23.366;2023-01-28T05:33:38;94460.88;;;3.78;59.45
40205;BME280;26963;42.666;23.366;2023-01-28T05:36:04;94466.16;;;3.73;59.23
40205;BME280;26963;42.666;23.366;2023-01-28T05:38:29;94437.31;;;3.66;59.10
40205;BME280;26963;42.666;23.366;2023-01-28T05:40:55;94463.81;;;3.82;59.21
40205;BME280;26963;42.666;23.366;2023-01-28T05:43:20;94474.13;;;3.78;58.71
40205;BME280;26963;42.666;23.366;2023-01-28T05:45:46;94455.31;;;3.74;58.64
40205;BME280;26963;42.666;23.366;2023-01-28T05:48:12;94394.38;;;3.33;59.25
40205;BME280;26963;42.666;23.366;2023-01-28T05:50:38;94474.16;;;3.88;59.16
40205;BME280;26963;42.666;23.366;2023-01-28T05:53:07;94478.91;;;3.86;58.58
40205;BME280;26963;42.666;23.366;2023-01-28T05:55:33;94449.72;;;3.61;58.47
40205;BME280;26963;42.666;23.366;2023-01-28T05:57:59;94489.75;;;3.85;58.41
40205;BME280;26963;42.666;23.366;2023-01-28T06:00:25;94481.75;;;3.69;58.34
40205;BME280;26963;42.666;23.366;2023-01-28T06:02:51;94486.03;;;3.75;58.67
40205;BME280;26963;42.666;23.366;2023-01-28T06:05:17;94489.22;;;3.78;59.02
40205;BME280;26963;42.666;23.366;2023-01-28T06:07:46;94488.13;;;3.73;58.36
40205;BME280;26963;42.666;23.366;2023-01-28T06:10:12;94502.97;;;3.85;58.49
40205;BME280;26963;42.666;23.366;2023-01-28T06:12:38;94485.47;;;3.68;58.28
40205;BME280;26963;42.666;23.366;2023-01-28T06:15:03;94509.59;;;3.82;58.23
40205;BME280;26963;42.666;23.366;2023-01-28T06:17:29;94516.22;;;3.85;58.72
40205;BME280;26963;42.666;23.366;2023-01-28T06:19:54;94500.31;;;3.74;57.76
40205;BME280;26963;42.666;23.366;2023-01-28T06:22:20;94501.13;;;3.75;58.48
40205;BME280;26963;42.666;23.366;2023-01-28T06:24:46;94454.13;;;3.39;58.52
40205;BME280;26963;42.666;23.366;2023-01-28T06:27:14;94528.13;;;3.92;58.66
40205;BME280;26963;42.666;23.366;2023-01-28T06:29:40;94522.03;;;3.87;58.04
40205;BME280;26963;42.666;23.366;2023-01-28T06:32:05;94514.59;;;3.79;58.50
40205;BME280;26963;42.666;23.366;2023-01-28T06:34:31;94522.03;;;3.87;58.05
40205;BME280;26963;42.666;23.366;2023-01-28T06:36:57;94533.72;;;3.96;58.37
40205;BME280;26963;42.666;23.366;2023-01-28T06:39:23;94525.19;;;3.84;58.70
40205;BME280;26963;42.666;23.366;2023-01-28T06:41:49;94536.91;;;3.98;58.34
40205;BME280;26963;42.666;23.366;2023-01-28T06:44:15;94535.28;;;3.92;58.13
40205;BME280;26963;42.666;23.366;2023-01-28T06:46:40;94540.09;;;4.00;57.91
40205;BME280;26963;42.666;23.366;2023-01-28T06:49:07;94556.53;;;4.07;57.41
40205;BME280;26963;42.666;23.366;2023-01-28T06:51:32;94487.56;;;3.61;57.98
40205;BME280;26963;42.666;23.366;2023-01-28T06:53:58;94559.16;;;4.07;58.28
40205;BME280;26963;42.666;23.366;2023-01-28T06:56:23;94559.16;;;4.07;57.66
40205;BME280;26963;42.666;23.366;2023-01-28T06:58:49;94550.16;;;4.03;57.87
40205;BME280;26963;42.666;23.366;2023-01-28T07:01:14;94491.78;;;3.62;57.69
40205;BME280;26963;42.666;23.366;2023-01-28T07:03:40;94484.34;;;3.54;57.57
40205;BME280;26963;42.666;23.366;2023-01-28T07:06:06;94553.84;;;4.02;57.24
40205;BME280;26963;42.666;23.366;2023-01-28T07:08:31;94527.34;;;3.87;57.73
40205;BME280;26963;42.666;23.366;2023-01-28T07:10:57;94572.97;;;4.15;57.49
40205;BME280;26963;42.666;23.366;2023-01-28T07:13:23;94564.47;;;4.07;57.35
40205;BME280;26963;42.666;23.366;2023-01-28T07:15:48;94572.69;;;4.11;57.01
40205;BME280;26963;42.666;23.366;2023-01-28T07:18:15;94392.59;;;2.91;56.96
40205;BME280;26963;42.666;23.366;2023-01-28T07:20:40;94592.00;;;4.06;57.09
40205;BME280;26963;42.666;23.366;2023-01-28T07:23:06;94554.88;;;3.91;57.51
40205;BME280;26963;42.666;23.366;2023-01-28T07:25:31;94499.16;;;3.50;57.45
40205;BME280;26963;42.666;23.366;2023-01-28T07:27:57;94554.34;;;3.89;57.68
40205;BME280;26963;42.666;23.366;2023-01-28T07:30:23;94538.41;;;3.79;57.77
40205;BME280;26963;42.666;23.366;2023-01-28T07:32:53;94605.81;;;4.24;56.85
40205;BME280;26963;42.666;23.366;2023-01-28T07:35:19;94607.41;;;4.25;57.26
40205;BME280;26963;42.666;23.366;2023-01-28T07:37:56;94540.03;;;3.85;56.78
40205;BME280;26963;42.666;23.366;2023-01-28T07:40:22;94617.25;;;4.30;57.00
40205;BME280;26963;42.666;23.366;2023-01-28T07:42:48;94600.00;;;4.22;57.01
40205;BME280;26963;42.666;23.366;2023-01-28T07:45:14;94542.91;;;3.78;56.80
40205;BME280;26963;42.666;23.366;2023-01-28T07:47:40;94616.22;;;4.36;56.54
40205;BME280;26963;42.666;23.366;2023-01-28T07:50:10;94616.97;;;4.31;56.54
40205;BME280;26963;42.666;23.366;2023-01-28T07:52:36;94620.19;;;4.38;56.58
40205;BME280;26963;42.666;23.366;2023-01-28T07:55:10;94618.59;;;4.37;56.36
40205;BME280;26963;42.666;23.366;2023-01-28T07:57:57;94614.88;;;4.38;56.63
40205;BME280;26963;42.666;23.366;2023-01-28T08:00:24;94623.34;;;4.40;56.50
40205;BME280;26963;42.666;23.366;2023-01-28T08:03:15;94621.50;;;4.36;56.40
40205;BME280;26963;42.666;23.366;2023-01-28T08:05:45;94630.81;;;4.49;56.55
40205;BME280;26963;42.666;23.366;2023-01-28T08:08:14;94618.06;;;4.40;56.37
40205;BME280;26963;42.666;23.366;2023-01-28T08:10:41;94564.47;;;4.07;56.01
40205;BME280;26963;42.666;23.366;2023-01-28T08:13:10;94635.56;;;4.52;55.55
40205;BME280;26963;42.666;23.366;2023-01-28T08:15:37;94644.56;;;4.51;56.00
40205;BME280;26963;42.666;23.366;2023-01-28T08:18:04;94637.72;;;4.50;55.64
40205;BME280;26963;42.666;23.366;2023-01-28T08:20:29;94635.03;;;4.45;55.84
40205;BME280;26963;42.666;23.366;2023-01-28T08:23:13;94628.16;;;4.44;56.09
40205;BME280;26963;42.666;23.366;2023-01-28T08:25:39;94648.06;;;4.56;56.37
40205;BME280;26963;42.666;23.366;2023-01-28T08:28:05;94614.91;;;4.44;56.00
40205;BME280;26963;42.666;23.366;2023-01-28T08:30:31;94589.94;;;4.24;56.30
40205;BME280;26963;42.666;23.366;2023-01-28T08:32:58;94643.56;;;4.67;56.01
40205;BME280;26963;42.666;23.366;2023-01-28T08:35:25;94644.38;;;4.68;55.96
40205;BME280;26963;42.666;23.366;2023-01-28T08:37:51;94645.72;;;4.76;54.90
40205;BME280;26963;42.666;23.366;2023-01-28T08:40:17;94643.34;;;4.74;55.52
40205;BME280;26963;42.666;23.366;2023-01-28T08:42:50;94642.50;;;4.73;54.97
40205;BME280;26963;42.666;23.366;2023-01-28T08:45:17;94655.28;;;4.82;54.94
40205;BME280;26963;42.666;23.366;2023-01-28T08:48:05;94615.50;;;4.66;54.78
40205;BME280;26963;42.666;23.366;2023-01-28T08:50:34;94527.44;;;4.23;54.81
40205;BME280;26963;42.666;23.366;2023-01-28T08:53:11;94648.41;;;5.12;55.08
40205;BME280;26963;42.666;23.366;2023-01-28T08:55:37;94570.16;;;4.68;54.44
40205;BME280;26963;42.666;23.366;2023-01-28T08:58:05;94629.31;;;5.10;54.09
40205;BME280;26963;42.666;23.366;2023-01-28T09:00:32;94594.31;;;4.92;53.68
40205;BME280;26963;42.666;23.366;2023-01-28T09:02:58;94650.81;;;5.23;53.48
40205;BME280;26963;42.666;23.366;2023-01-28T09:05:23;94655.56;;;5.27;53.91
40205;BME280;26963;42.666;23.366;2023-01-28T09:07:49;94649.47;;;5.31;53.54
40205;BME280;26963;42.666;23.366;2023-01-28T09:10:15;94586.91;;;4.89;53.93
40205;BME280;26963;42.666;23.366;2023-01-28T09:12:45;94655.31;;;5.38;52.76
40205;BME280;26963;42.666;23.366;2023-01-28T09:15:11;94637.81;;;5.32;53.02
40205;BME280;26963;42.666;23.366;2023-01-28T09:17:37;94652.13;;;5.47;52.94
40205;BME280;26963;42.666;23.366;2023-01-28T09:20:03;94660.63;;;5.54;52.21
40205;BME280;26963;42.666;23.366;2023-01-28T09:22:29;94507.34;;;4.58;53.09
40205;BME280;26963;42.666;23.366;2023-01-28T09:24:54;94650.25;;;5.78;52.92
40205;BME280;26963;42.666;23.366;2023-01-28T09:27:20;94618.13;;;5.64;52.50
40205;BME280;26963;42.666;23.366;2023-01-28T09:29:45;94640.41;;;5.89;52.09
40205;BME280;26963;42.666;23.366;2023-01-28T09:32:14;94626.34;;;5.83;52.64
40205;BME280;26963;42.666;23.366;2023-01-28T09:34:40;94645.69;;;5.84;50.89
40205;BME280;26963;42.666;23.366;2023-01-28T09:37:05;94651.28;;;5.82;51.90
40205;BME280;26963;42.666;23.366;2023-01-28T09:39:31;94639.91;;;5.66;51.91
40205;BME280;26963;42.666;23.366;2023-01-28T09:45:15;94638.31;;;5.60;52.90
40205;BME280;26963;42.666;23.366;2023-01-28T09:47:48;94653.69;;;5.68;52.75
40205;BME280;26963;42.666;23.366;2023-01-28T09:50:24;94631.69;;;5.58;53.26
40205;BME280;26963;42.666;23.366;2023-01-28T09:52:54;94651.31;;;5.62;51.97
40205;BME280;26963;42.666;23.366;2023-01-28T09:57:54;94621.88;;;5.48;53.37
40205;BME280;26963;42.666;23.366;2023-01-28T10:00:39;94581.03;;;5.23;52.94
40205;BME280;26963;42.666;23.366;2023-01-28T10:16:48;94556.06;;;5.60;51.54
40205;BME280;26963;42.666;23.366;2023-01-28T10:19:20;94640.88;;;6.12;52.93
40205;BME280;26963;42.666;23.366;2023-01-28T10:22:02;94630.81;;;5.93;52.06
40205;BME280;26963;42.666;23.366;2023-01-28T10:24:40;94556.59;;;5.52;52.85
40205;BME280;26963;42.666;23.366;2023-01-28T10:27:16;94650.19;;;6.09;52.31
40205;BME280;26963;42.666;23.366;2023-01-28T10:29:45;94642.50;;;6.08;53.11
40205;BME280;26963;42.666;23.366;2023-01-28T10:34:37;94615.44;;;6.00;51.16
40205;BME280;26963;42.666;23.366;2023-01-28T10:37:03;94633.97;;;6.21;50.82
40205;BME280;26963;42.666;23.366;2023-01-28T10:39:28;94643.50;;;6.27;50.67
40205;BME280;26963;42.666;23.366;2023-01-28T10:41:54;94642.97;;;6.25;50.70
40205;BME280;26963;42.666;23.366;2023-01-28T10:44:36;94632.84;;;6.38;51.53
40205;BME280;26963;42.666;23.366;2023-01-28T10:47:12;94628.31;;;6.33;50.73
40205;BME280;26963;42.666;23.366;2023-01-28T10:49:46;94647.69;;;6.44;50.95
40205;BME280;26963;42.666;23.366;2023-01-28T10:52:16;94620.06;;;6.34;51.27
40205;BME280;26963;42.666;23.366;2023-01-28T10:54:42;94637.84;;;6.44;52.29
40205;BME280;26963;42.666;23.366;2023-01-28T10:57:18;94631.72;;;6.49;51.74
40205;BME280;26963;42.666;23.366;2023-01-28T10:59:44;94643.94;;;6.50;51.61
40205;BME280;26963;42.666;23.366;2023-01-28T11:02:40;94640.97;;;6.57;51.37
40205;BME280;26963;42.666;23.366;2023-01-28T11:05:17;94624.81;;;6.48;50.53
40205;BME280;26963;42.666;23.366;2023-01-28T11:07:46;94612.59;;;6.47;51.18
40205;BME280;26963;42.666;23.366;2023-01-28T11:10:35;94609.13;;;6.46;51.38
40205;BME280;26963;42.666;23.366;2023-01-28T11:13:03;94640.69;;;6.58;50.02
40205;BME280;26963;42.666;23.366;2023-01-28T11:15:30;94482.53;;;5.55;49.69
40205;BME280;26963;42.666;23.366;2023-01-28T11:18:02;94638.06;;;6.53;50.00
40205;BME280;26963;42.666;23.366;2023-01-28T11:20:36;94591.44;;;6.21;50.46
40205;BME280;26963;42.666;23.366;2023-01-28T11:23:02;94639.34;;;6.61;50.72
40205;BME280;26963;42.666;23.366;2023-01-28T11:27:57;94613.34;;;6.58;49.62
40205;BME280;26963;42.666;23.366;2023-01-28T11:30:36;94536.25;;;6.08;50.36
40205;BME280;26963;42.666;23.366;2023-01-28T11:33:15;94596.09;;;6.50;49.79
40205;BME280;26963;42.666;23.366;2023-01-28T11:35:41;94583.88;;;6.49;50.17
40205;BME280;26963;42.666;23.366;2023-01-28T11:38:19;94608.22;;;6.72;49.92
40205;BME280;26963;42.666;23.366;2023-01-28T11:40:53;94583.25;;;6.62;50.13
40205;BME280;26963;42.666;23.366;2023-01-28T11:43:24;94618.50;;;6.83;49.21
40205;BME280;26963;42.666;23.366;2023-01-28T11:46:10;94630.44;;;6.86;48.91
40205;BME280;26963;42.666;23.366;2023-01-28T11:57:37;94618.06;;;6.66;49.22
40205;BME280;26963;42.666;23.366;2023-01-28T12:05:51;94597.13;;;6.54;48.90
40205;BME280;26963;42.666;23.366;2023-01-28T12:08:25;94623.09;;;6.73;49.09
40205;BME280;26963;42.666;23.366;2023-01-28T12:11:26;94570.19;;;6.26;48.82
40205;BME280;26963;42.666;23.366;2023-01-28T12:14:21;94593.00;;;6.32;48.67
40205;BME280;26963;42.666;23.366;2023-01-28T12:17:16;94627.41;;;6.58;49.47
40205;BME280;26963;42.666;23.366;2023-01-28T12:24:54;94623.41;;;6.61;49.39
40205;BME280;26963;42.666;23.366;2023-01-28T12:33:52;94634.78;;;6.72;49.92
40205;BME280;26963;42.666;23.366;2023-01-28T12:37:09;94614.94;;;6.59;49.18
40205;BME280;26963;42.666;23.366;2023-01-28T12:41:48;94638.81;;;6.64;49.63
40205;BME280;26963;42.666;23.366;2023-01-28T12:44:56;94622.88;;;6.64;49.43
40205;BME280;26963;42.666;23.366;2023-01-28T12:47:30;94621.56;;;6.56;49.48
40205;BME280;26963;42.666;23.366;2023-01-28T12:50:10;94650.78;;;6.66;49.11
40205;BME280;26963;42.666;23.366;2023-01-28T12:52:49;94633.25;;;6.60;49.38
40205;BME280;26963;42.666;23.366;2023-01-28T12:55:21;94516.13;;;5.86;50.46
40205;BME280;26963;42.666;23.366;2023-01-28T12:57:56;94632.97;;;6.62;49.84
40205;BME280;26963;42.666;23.366;2023-01-28T13:00:38;94658.69;;;6.77;49.69
40205;BME280;26963;42.666;23.366;2023-01-28T13:03:19;94657.09;;;6.76;48.81
40205;BME280;26963;42.666;23.366;2023-01-28T13:05:49;94616.28;;;6.51;49.84
40205;BME280;26963;42.666;23.366;2023-01-28T13:08:22;94657.09;;;6.76;49.88
40205;BME280;26963;42.666;23.366;2023-01-28T13:10:48;94630.59;;;6.60;49.76
40205;BME280;26963;42.666;23.366;2023-01-28T13:13:38;94592.97;;;6.38;49.89
40205;BME280;26963;42.666;23.366;2023-01-28T13:16:04;94656.06;;;6.72;48.67
40205;BME280;26963;42.666;23.366;2023-01-28T13:21:32;94661.63;;;6.70;48.33
40205;BME280;26963;42.666;23.366;2023-01-28T13:24:05;94665.94;;;6.61;48.54
40205;BME280;26963;42.666;23.366;2023-01-28T13:26:44;94675.81;;;6.55;48.21
40205;BME280;26963;42.666;23.366;2023-01-28T13:31:46;94658.81;;;6.46;48.85
40205;BME280;26963;42.666;23.366;2023-01-28T13:34:31;94662.09;;;6.32;48.52
40205;BME280;26963;42.666;23.366;2023-01-28T13:37:14;94681.72;;;6.36;48.48
40205;BME280;26963;42.666;23.366;2023-01-28T13:39:50;94650.44;;;6.13;49.63
40205;BME280;26963;42.666;23.366;2023-01-28T13:42:22;94665.53;;;6.33;49.80
40205;BME280;26963;42.666;23.366;2023-01-28T13:44:49;94697.66;;;6.36;50.08
40205;BME280;26963;42.666;23.366;2023-01-28T13:47:30;94690.28;;;6.28;49.82
40205;BME280;26963;42.666;23.366;2023-01-28T13:49:59;94694.22;;;6.26;50.06
40205;BME280;26963;42.666;23.366;2023-01-28T13:55:01;94703.56;;;6.18;50.37
40205;BME280;26963;42.666;23.366;2023-01-28T14:03:06;94674.13;;;5.78;50.51
40205;BME280;26963;42.666;23.366;2023-01-28T14:11:28;94721.41;;;5.86;50.32
40205;BME280;26963;42.666;23.366;2023-01-28T14:17:22;94729.09;;;5.72;51.03
40205;BME280;26963;42.666;23.366;2023-01-28T14:19:56;94724.84;;;5.61;51.09
40205;BME280;26963;42.666;23.366;2023-01-28T14:22:22;94716.88;;;5.46;51.76
40205;BME280;26963;42.666;23.366;2023-01-28T14:24:48;94690.88;;;5.17;51.60
40205;BME280;26963;42.666;23.366;2023-01-28T14:27:16;94666.94;;;4.96;51.57
40205;BME280;26963;42.666;23.366;2023-01-28T14:32:29;94712.03;;;5.12;52.71
40205;BME280;26963;42.666;23.366;2023-01-28T14:34:58;94712.88;;;5.12;52.62
40205;BME280;26963;42.666;23.366;2023-01-28T14:37:29;94733.81;;;5.24;52.90
40205;BME280;26963;42.666;23.366;2023-01-28T14:40:06;94601.84;;;4.27;52.01
40205;BME280;26963;42.666;23.366;2023-01-28T14:42:39;94696.09;;;4.81;52.66
40205;BME280;26963;42.666;23.366;2023-01-28T14:53:11;94694.44;;;4.59;52.38
40205;BME280;26963;42.666;23.366;2023-01-28T14:56:12;94750.69;;;4.82;53.02
40205;BME280;26963;42.666;23.366;2023-01-28T14:58:45;94730.81;;;4.79;54.07
40205;BME280;26963;42.666;23.366;2023-01-28T15:01:26;94755.47;;;4.90;53.98
40205;BME280;26963;42.666;23.366;2023-01-28T15:03:52;94748.56;;;4.84;53.06
40205;BME280;26963;42.666;23.366;2023-01-28T15:06:23;94754.72;;;4.95;53.27
40205;BME280;26963;42.666;23.366;2023-01-28T15:08:53;94741.16;;;4.81;53.43
40205;BME280;26963;42.666;23.366;2023-01-28T15:11:29;94749.63;;;4.78;53.34
40205;BME280;26963;42.666;23.366;2023-01-28T15:13:58;94746.44;;;4.81;53.49